Time;durP1;ratioP1;P1;durP2;ratioP2;P2;SDS_P1;SDS_P2;PMS_P1;PMS_P2;Temp;Humidity;BMP_temperature;BMP_pressure;BME280_temperature;BME280_humidity;BME280_pressure;Samples;Min_cycle;Max_cycle;Signal;HPM_P1;HPM_P2
2021/01/21 00:00:26;;;;;;;10.82;2.78;;;;;;;;;;4995353;28;20137;-85
2021/01/21 00:02:52;;;;;;;4.90;2.70;;;;;;;;;;5001219;28;20518;-84
2021/01/21 00:05:19;;;;;;;7.03;2.92;;;;;;;;;;5004178;28;20049;-84
2021/01/21 00:07:46;;;;;;;6.90;3.03;;;;;;;;;;4996016;28;20050;-84
2021/01/21 00:10:13;;;;;;;10.10;2.90;;;;;;;;;;5001620;28;20073;-83
2021/01/21 00:12:40;;;;;;;6.70;2.55;;;;;;;;;;5001145;28;20070;-84
2021/01/21 00:15:06;;;;;;;10.57;3.00;;;;;;;;;;5004215;28;20463;-84
2021/01/21 00:18:06;;;;;;;6.82;2.63;;;;;;;;;;5005732;28;20082;-84
2021/01/21 00:20:33;;;;;;;5.43;2.42;;;;;;;;;;4996757;28;20129;-84
2021/01/21 00:23:00;;;;;;;6.18;2.80;;;;;;;;;;4995292;28;20480;-85
2021/01/21 00:25:40;;;;;;;7.45;2.70;;;;;;;;;;4998444;28;20487;-85
2021/01/21 00:28:07;;;;;;;6.05;2.70;;;;;;;;;;5001750;28;20046;-84
2021/01/21 00:30:35;;;;;;;7.85;2.60;;;;;;;;;;5000936;28;20101;-84
2021/01/21 00:33:02;;;;;;;5.22;2.38;;;;;;;;;;4999578;28;20078;-84
2021/01/21 00:35:29;;;;;;;5.53;2.47;;;;;;;;;;5000737;28;20880;-85
2021/01/21 00:37:56;;;;;;;5.07;2.45;;;;;;;;;;5001795;28;20050;-84
2021/01/21 00:40:23;;;;;;;5.07;2.45;;;;;;;;;;5003512;28;20486;-85
2021/01/21 00:42:49;;;;;;;5.20;2.15;;;;;;;;;;5003894;28;20078;-84
2021/01/21 00:45:27;;;;;;;11.27;3.83;;;;;;;;;;5003907;28;20100;-85
2021/01/21 00:47:54;;;;;;;4.13;2.28;;;;;;;;;;5012261;28;20050;-84
2021/01/21 00:50:21;;;;;;;5.80;3.08;;;;;;;;;;5011439;28;20124;-84
2021/01/21 00:52:52;;;;;;;9.40;3.13;;;;;;;;;;5002832;28;20046;-84
2021/01/21 00:55:19;;;;;;;9.88;2.83;;;;;;;;;;5001154;28;20576;-85
2021/01/21 00:57:48;;;;;;;7.22;2.60;;;;;;;;;;5001378;28;20454;-85
2021/01/21 01:00:15;;;;;;;4.93;2.40;;;;;;;;;;5000709;28;20137;-85
2021/01/21 01:02:42;;;;;;;6.47;2.60;;;;;;;;;;4998991;28;20063;-85
2021/01/21 01:05:09;;;;;;;9.52;2.85;;;;;;;;;;5007565;28;20057;-85
2021/01/21 01:07:36;;;;;;;5.72;2.35;;;;;;;;;;4999617;28;20089;-84
2021/01/21 01:10:03;;;;;;;7.63;2.63;;;;;;;;;;5001349;28;20053;-84
2021/01/21 01:12:30;;;;;;;4.85;2.22;;;;;;;;;;5000667;28;20086;-83
2021/01/21 01:15:02;;;;;;;7.47;2.78;;;;;;;;;;5001607;28;20483;-84
2021/01/21 01:17:28;;;;;;;6.15;2.78;;;;;;;;;;5003984;28;20466;-84
2021/01/21 01:20:07;;;;;;;3.97;2.38;;;;;;;;;;5013344;28;20061;-84
2021/01/21 01:22:36;;;;;;;8.52;1.85;;;;;;;;;;5006612;28;20084;-84
2021/01/21 01:25:03;;;;;;;4.00;2.35;;;;;;;;;;5003634;28;20544;-84
2021/01/21 01:27:32;;;;;;;7.05;2.63;;;;;;;;;;5001119;28;20082;-86
2021/01/21 01:29:59;;;;;;;9.18;2.42;;;;;;;;;;5003981;28;20479;-84
2021/01/21 01:32:26;;;;;;;5.18;2.13;;;;;;;;;;4994193;28;20062;-84
2021/01/21 01:35:01;;;;;;;5.57;2.30;;;;;;;;;;5003128;28;20172;-86
2021/01/21 01:37:27;;;;;;;10.60;2.92;;;;;;;;;;5006004;28;20459;-85
2021/01/21 01:39:54;;;;;;;5.47;2.20;;;;;;;;;;5005519;28;20050;-84
2021/01/21 01:42:28;;;;;;;3.92;2.00;;;;;;;;;;5007455;28;20129;-84
2021/01/21 01:44:54;;;;;;;6.88;2.15;;;;;;;;;;5006209;28;20132;-84
2021/01/21 01:47:22;;;;;;;6.28;2.80;;;;;;;;;;5005740;28;20071;-84
2021/01/21 01:50:03;;;;;;;5.28;2.30;;;;;;;;;;5004654;28;20054;-84
2021/01/21 01:52:30;;;;;;;5.15;2.90;;;;;;;;;;5005966;28;20108;-84
2021/01/21 01:54:56;;;;;;;8.07;2.35;;;;;;;;;;5005514;28;20524;-84
2021/01/21 01:57:24;;;;;;;4.53;2.08;;;;;;;;;;5000200;28;20112;-84
2021/01/21 01:59:53;;;;;;;7.05;2.13;;;;;;;;;;5004096;28;20082;-84
2021/01/21 02:02:20;;;;;;;6.97;2.40;;;;;;;;;;4996745;28;20058;-83
2021/01/21 02:04:47;;;;;;;5.53;2.70;;;;;;;;;;4995088;28;20069;-84
2021/01/21 02:07:14;;;;;;;3.65;2.28;;;;;;;;;;5005973;28;20092;-83
2021/01/21 02:09:41;;;;;;;5.43;2.30;;;;;;;;;;5014376;28;20050;-84
2021/01/21 02:12:14;;;;;;;2.63;1.73;;;;;;;;;;5001580;28;20415;-84
2021/01/21 02:15:05;;;;;;;8.93;3.58;;;;;;;;;;5010671;28;20620;-85
2021/01/21 02:17:32;;;;;;;5.57;2.70;;;;;;;;;;5003388;28;20471;-85
2021/01/21 02:20:18;;;;;;;4.97;2.42;;;;;;;;;;5004756;28;20112;-84
2021/01/21 02:23:07;;;;;;;7.38;2.40;;;;;;;;;;5001930;28;20054;-84
2021/01/21 02:25:53;;;;;;;4.18;2.15;;;;;;;;;;5006364;28;20077;-84
2021/01/21 02:28:43;;;;;;;4.97;2.30;;;;;;;;;;4994066;28;20506;-83
2021/01/21 02:31:16;;;;;;;4.90;2.67;;;;;;;;;;5001596;28;20133;-83
2021/01/21 02:34:06;;;;;;;5.55;2.30;;;;;;;;;;5002564;28;20074;-84
2021/01/21 02:36:36;;;;;;;8.55;2.53;;;;;;;;;;4998257;28;20062;-83
2021/01/21 02:39:04;;;;;;;6.20;2.40;;;;;;;;;;4998619;28;20129;-84
2021/01/21 02:41:32;;;;;;;6.50;2.50;;;;;;;;;;4995996;28;20741;-85
2021/01/21 02:43:59;;;;;;;5.18;2.38;;;;;;;;;;4998831;28;20070;-83
2021/01/21 02:46:26;;;;;;;4.18;1.95;;;;;;;;;;4996989;28;20082;-84
2021/01/21 02:49:05;;;;;;;5.93;2.30;;;;;;;;;;5001642;28;20049;-85
2021/01/21 02:51:41;;;;;;;6.18;2.70;;;;;;;;;;5001881;28;20054;-84
2021/01/21 02:54:19;;;;;;;4.15;2.10;;;;;;;;;;4997178;28;20050;-86
2021/01/21 02:56:46;;;;;;;9.15;2.50;;;;;;;;;;4996681;28;20812;-85
2021/01/21 02:59:15;;;;;;;8.13;2.38;;;;;;;;;;4996204;28;20446;-86
2021/01/21 03:01:45;;;;;;;12.77;2.88;;;;;;;;;;4994298;28;21410;-84
2021/01/21 03:04:12;;;;;;;3.83;2.40;;;;;;;;;;4985477;28;20053;-86
2021/01/21 03:06:39;;;;;;;8.32;2.55;;;;;;;;;;5001231;28;20476;-85
2021/01/21 03:09:06;;;;;;;5.13;2.38;;;;;;;;;;4997529;28;20139;-84
2021/01/21 03:11:32;;;;;;;6.25;2.20;;;;;;;;;;5002361;28;20050;-85
2021/01/21 03:14:00;;;;;;;4.30;2.40;;;;;;;;;;4995615;28;20050;-84
2021/01/21 03:16:26;;;;;;;6.20;2.38;;;;;;;;;;5013194;28;20070;-84
2021/01/21 03:18:53;;;;;;;4.15;2.08;;;;;;;;;;5008932;28;20454;-84
2021/01/21 03:21:25;;;;;;;5.20;2.00;;;;;;;;;;5008448;28;20105;-84
2021/01/21 03:23:52;;;;;;;4.22;2.00;;;;;;;;;;5000138;28;20078;-84
2021/01/21 03:26:19;;;;;;;6.25;2.58;;;;;;;;;;5001627;28;20050;-83
2021/01/21 03:28:58;;;;;;;8.38;2.03;;;;;;;;;;5000410;28;20619;-85
2021/01/21 03:31:25;;;;;;;4.10;1.88;;;;;;;;;;4999256;28;20045;-84
2021/01/21 03:33:52;;;;;;;5.15;2.33;;;;;;;;;;4994318;28;20050;-84
2021/01/21 03:36:18;;;;;;;6.13;2.25;;;;;;;;;;5008621;28;20081;-84
2021/01/21 03:38:45;;;;;;;6.47;1.98;;;;;;;;;;4996806;28;20046;-84
2021/01/21 03:41:12;;;;;;;4.85;2.13;;;;;;;;;;5004510;28;20799;-84
2021/01/21 03:43:38;;;;;;;5.28;1.90;;;;;;;;;;5004277;28;20464;-84
2021/01/21 03:46:05;;;;;;;7.40;2.00;;;;;;;;;;5000827;28;20050;-83
2021/01/21 03:48:31;;;;;;;4.47;2.00;;;;;;;;;;5006407;28;20100;-84
2021/01/21 03:51:01;;;;;;;7.40;2.40;;;;;;;;;;5002613;28;20145;-84
2021/01/21 03:53:28;;;;;;;4.07;1.88;;;;;;;;;;4999860;28;20108;-83
2021/01/21 03:55:55;;;;;;;4.63;2.00;;;;;;;;;;5002586;28;20106;-85
2021/01/21 03:58:22;;;;;;;3.88;1.90;;;;;;;;;;4999130;28;20054;-84
2021/01/21 04:00:48;;;;;;;8.43;2.45;;;;;;;;;;4986897;28;20046;-84
2021/01/21 04:03:15;;;;;;;5.28;2.35;;;;;;;;;;4989169;28;20054;-85
2021/01/21 04:05:42;;;;;;;4.93;2.35;;;;;;;;;;5000909;28;20042;-84
2021/01/21 04:08:22;;;;;;;7.82;2.00;;;;;;;;;;5000232;28;20074;-84
2021/01/21 04:10:48;;;;;;;3.05;1.63;;;;;;;;;;5001313;28;20054;-83
2021/01/21 04:13:15;;;;;;;7.75;2.17;;;;;;;;;;5002985;28;20665;-84
2021/01/21 04:15:41;;;;;;;3.95;2.00;;;;;;;;;;5003183;28;20108;-84
2021/01/21 04:18:10;;;;;;;4.50;2.15;;;;;;;;;;4999693;28;20818;-85
2021/01/21 04:20:37;;;;;;;7.93;2.10;;;;;;;;;;4997543;28;20119;-83
2021/01/21 04:23:03;;;;;;;3.25;1.45;;;;;;;;;;4992099;28;20110;-83
2021/01/21 04:25:30;;;;;;;10.10;1.77;;;;;;;;;;5002455;28;20750;-83
2021/01/21 04:27:57;;;;;;;5.07;1.75;;;;;;;;;;5001743;28;20469;-83
2021/01/21 04:30:25;;;;;;;4.55;1.80;;;;;;;;;;5000613;28;20487;-84
2021/01/21 04:32:52;;;;;;;5.55;1.67;;;;;;;;;;4992719;28;20042;-84
2021/01/21 04:35:19;;;;;;;2.88;1.60;;;;;;;;;;4999388;28;20054;-84
2021/01/21 04:38:07;;;;;;;4.75;1.90;;;;;;;;;;5000554;28;20050;-83
2021/01/21 04:40:34;;;;;;;3.85;2.00;;;;;;;;;;5002803;28;20050;-83
2021/01/21 04:43:00;;;;;;;4.22;1.85;;;;;;;;;;4992133;28;20082;-84
2021/01/21 04:45:27;;;;;;;6.60;1.70;;;;;;;;;;4998378;28;20081;-84
2021/01/21 04:47:54;;;;;;;4.10;1.73;;;;;;;;;;5001974;28;20104;-84
2021/01/21 04:50:21;;;;;;;3.45;1.48;;;;;;;;;;5006900;28;20042;-83
2021/01/21 04:52:52;;;;;;;5.85;2.03;;;;;;;;;;5006563;28;20487;-84
2021/01/21 04:55:33;;;;;;;6.60;1.75;;;;;;;;;;5007856;28;20054;-84
2021/01/21 04:58:19;;;;;;;8.02;1.92;;;;;;;;;;5004935;28;20056;-84
2021/01/21 05:00:46;;;;;;;3.85;1.73;;;;;;;;;;4997459;28;20495;-83
2021/01/21 05:03:14;;;;;;;5.40;1.70;;;;;;;;;;5003514;28;20435;-83
2021/01/21 05:05:40;;;;;;;4.72;1.70;;;;;;;;;;5002713;28;20781;-82
2021/01/21 05:08:08;;;;;;;2.58;1.35;;;;;;;;;;5004131;28;20086;-82
2021/01/21 05:10:35;;;;;;;4.88;1.60;;;;;;;;;;5004132;28;20104;-82
2021/01/21 05:13:02;;;;;;;9.23;2.30;;;;;;;;;;5014133;28;20077;-82
2021/01/21 05:15:31;;;;;;;5.15;1.65;;;;;;;;;;5009636;28;20142;-82
2021/01/21 05:17:59;;;;;;;4.28;1.52;;;;;;;;;;5004431;28;20506;-82
2021/01/21 05:20:35;;;;;;;16.48;2.47;;;;;;;;;;4998660;28;20050;-83
2021/01/21 05:23:05;;;;;;;5.85;1.60;;;;;;;;;;4996808;28;20092;-84
2021/01/21 05:25:32;;;;;;;6.75;1.83;;;;;;;;;;5005744;28;20050;-83
2021/01/21 05:28:00;;;;;;;4.05;1.58;;;;;;;;;;5002658;28;20499;-83
2021/01/21 05:30:31;;;;;;;3.97;1.63;;;;;;;;;;4999443;28;20077;-83
2021/01/21 05:32:58;;;;;;;4.45;1.10;;;;;;;;;;5011366;28;20050;-85
2021/01/21 05:35:29;;;;;;;6.82;1.55;;;;;;;;;;4998628;28;20046;-84
2021/01/21 05:37:57;;;;;;;3.15;1.60;;;;;;;;;;4998194;28;20051;-82
2021/01/21 05:40:25;;;;;;;3.90;1.75;;;;;;;;;;5010627;28;20054;-83
2021/01/21 05:42:53;;;;;;;5.65;1.77;;;;;;;;;;4998135;28;20439;-84
2021/01/21 05:45:20;;;;;;;2.67;1.30;;;;;;;;;;5012324;28;20092;-87
2021/01/21 05:47:57;;;;;;;3.42;1.63;;;;;;;;;;5002618;28;20050;-86
2021/01/21 05:50:27;;;;;;;6.68;1.67;;;;;;;;;;5000791;28;20502;-87
2021/01/21 05:52:54;;;;;;;3.70;1.27;;;;;;;;;;5003437;28;20093;-88
2021/01/21 05:55:24;;;;;;;6.15;2.22;;;;;;;;;;5007215;28;20752;-87
2021/01/21 05:57:51;;;;;;;3.97;1.60;;;;;;;;;;4997656;28;20547;-89
2021/01/21 06:00:34;;;;;;;5.63;1.90;;;;;;;;;;4999383;28;20077;-86
2021/01/21 06:03:01;;;;;;;5.25;2.13;;;;;;;;;;4996447;28;20046;-88
2021/01/21 06:05:28;;;;;;;5.72;1.70;;;;;;;;;;5006864;28;20479;-85
2021/01/21 06:07:55;;;;;;;5.10;1.25;;;;;;;;;;5005961;28;20053;-86
2021/01/21 06:10:22;;;;;;;5.30;1.58;;;;;;;;;;5001885;28;20089;-83
2021/01/21 06:13:05;;;;;;;4.30;2.15;;;;;;;;;;5009888;28;20139;-85
2021/01/21 06:15:32;;;;;;;7.20;1.63;;;;;;;;;;5005224;28;20078;-84
2021/01/21 06:18:02;;;;;;;3.50;1.70;;;;;;;;;;5004463;28;20065;-83
2021/01/21 06:20:57;;;;;;;2.92;1.45;;;;;;;;;;5008636;28;20526;-83
2021/01/21 06:23:25;;;;;;;4.17;1.63;;;;;;;;;;5006165;28;20046;-82
2021/01/21 06:25:53;;;;;;;5.63;1.92;;;;;;;;;;5000503;28;20357;-82
2021/01/21 06:28:21;;;;;;;3.15;1.42;;;;;;;;;;4994376;28;20232;-83
2021/01/21 06:30:52;;;;;;;4.38;1.67;;;;;;;;;;4997202;28;20606;-83
2021/01/21 06:33:20;;;;;;;3.90;1.52;;;;;;;;;;4992663;28;20042;-82
2021/01/21 06:35:51;;;;;;;3.88;1.45;;;;;;;;;;5001209;28;20046;-79
2021/01/21 06:38:22;;;;;;;2.67;1.50;;;;;;;;;;4998126;28;20050;-83
2021/01/21 06:40:53;;;;;;;3.78;1.50;;;;;;;;;;5002047;28;20145;-80
2021/01/21 06:43:25;;;;;;;5.15;1.20;;;;;;;;;;4999039;28;20073;-84
2021/01/21 06:45:53;;;;;;;2.63;1.50;;;;;;;;;;4994183;28;20598;-84
2021/01/21 06:48:20;;;;;;;5.93;1.70;;;;;;;;;;5002232;28;20472;-84
2021/01/21 06:50:51;;;;;;;3.58;1.35;;;;;;;;;;5001245;28;20097;-83
2021/01/21 06:53:19;;;;;;;6.38;1.70;;;;;;;;;;5005478;28;20054;-83
2021/01/21 06:55:50;;;;;;;6.13;1.40;;;;;;;;;;5000185;28;20070;-83
2021/01/21 06:58:37;;;;;;;6.50;1.50;;;;;;;;;;5012565;28;20089;-83
2021/01/21 07:01:03;;;;;;;8.85;1.90;;;;;;;;;;4989420;28;20054;-84
2021/01/21 07:03:37;;;;;;;5.60;1.45;;;;;;;;;;4985971;28;20051;-85
2021/01/21 07:06:04;;;;;;;4.70;1.30;;;;;;;;;;4992526;28;20085;-85
2021/01/21 07:08:30;;;;;;;1522.30;203.77;;;;;;;;;;5016842;28;20081;-88
2021/01/21 07:10:58;;;;;;;311.02;37.55;;;;;;;;;;5002304;28;20050;-85
2021/01/21 07:13:29;;;;;;;357.77;48.03;;;;;;;;;;5005137;28;20046;-84
2021/01/21 07:15:57;;;;;;;5.35;2.10;;;;;;;;;;5005977;28;20049;-85
2021/01/21 07:18:25;;;;;;;4.80;1.58;;;;;;;;;;5005060;28;20060;-87
2021/01/21 07:21:07;;;;;;;4.05;1.60;;;;;;;;;;5005419;28;20104;-84
2021/01/21 07:23:51;;;;;;;6.95;1.77;;;;;;;;;;5012944;28;20053;-84
2021/01/21 07:26:27;;;;;;;6.88;1.65;;;;;;;;;;4994271;28;20090;-83
2021/01/21 07:29:13;;;;;;;3.25;1.38;;;;;;;;;;5000643;28;20614;-81
2021/01/21 07:31:52;;;;;;;2.90;1.38;;;;;;;;;;4991374;28;20085;-85
2021/01/21 07:34:25;;;;;;;7.40;1.75;;;;;;;;;;5005930;28;20140;-82
2021/01/21 07:37:16;;;;;;;12.27;1.55;;;;;;;;;;5005405;28;20058;-82
2021/01/21 07:40:02;;;;;;;4.07;1.50;;;;;;;;;;5001571;28;20050;-83
2021/01/21 07:42:37;;;;;;;2.70;1.40;;;;;;;;;;4995157;28;20452;-84
2021/01/21 07:47:48;;;;;;;12.23;3.22;;;;;;;;;;5001517;28;20041;-83
2021/01/21 07:50:14;;;;;;;202.25;27.55;;;;;;;;;;5004634;28;20074;-84
2021/01/21 07:52:45;;;;;;;9.98;1.77;;;;;;;;;;4995558;28;20097;-83
2021/01/21 07:55:12;;;;;;;13.43;3.50;;;;;;;;;;5003175;28;20046;-81
2021/01/21 07:57:39;;;;;;;4.25;1.27;;;;;;;;;;5003637;28;20081;-82
2021/01/21 08:00:07;;;;;;;1.65;1.08;;;;;;;;;;5001918;28;20111;-82
2021/01/21 08:02:43;;;;;;;17.60;1.48;;;;;;;;;;4986477;28;20058;-82
2021/01/21 08:05:10;;;;;;;6.00;1.60;;;;;;;;;;4989695;28;20057;-82
2021/01/21 08:07:52;;;;;;;4.78;1.35;;;;;;;;;;4999302;28;20490;-82
2021/01/21 08:10:22;;;;;;;4.53;1.20;;;;;;;;;;5004573;28;20491;-84
2021/01/21 08:12:55;;;;;;;2.17;1.17;;;;;;;;;;5002933;28;20050;-86
2021/01/21 08:15:22;;;;;;;10.45;1.58;;;;;;;;;;5000717;28;20826;-81
2021/01/21 08:17:50;;;;;;;5.00;1.33;;;;;;;;;;5001222;28;20053;-84
2021/01/21 08:20:21;;;;;;;2.63;1.25;;;;;;;;;;5001095;28;20054;-85
2021/01/21 08:22:51;;;;;;;5.03;1.48;;;;;;;;;;5000830;28;20130;-82
2021/01/21 08:25:18;;;;;;;3.80;1.60;;;;;;;;;;5005018;28;20133;-83
2021/01/21 08:27:45;;;;;;;10.73;1.88;;;;;;;;;;5007627;28;20059;-82
2021/01/21 08:30:15;;;;;;;2.30;1.10;;;;;;;;;;4995485;28;20538;-84
2021/01/21 08:32:45;;;;;;;11.18;1.42;;;;;;;;;;5004198;28;20054;-82
2021/01/21 08:35:15;;;;;;;4.38;1.27;;;;;;;;;;5000605;28;20129;-83
2021/01/21 08:37:43;;;;;;;6.38;1.23;;;;;;;;;;5006959;28;20077;-86
2021/01/21 08:40:10;;;;;;;939.55;145.40;;;;;;;;;;5007787;28;20108;-87
2021/01/21 08:42:41;;;;;;;44.70;7.40;;;;;;;;;;5001687;28;20081;-86
2021/01/21 08:45:08;;;;;;;2.50;1.23;;;;;;;;;;5007007;28;20077;-86
2021/01/21 08:47:43;;;;;;;2.47;1.35;;;;;;;;;;5007023;28;20125;-85
2021/01/21 08:50:10;;;;;;;2.78;1.17;;;;;;;;;;5000336;28;20046;-86
2021/01/21 08:52:54;;;;;;;3.95;1.48;;;;;;;;;;5004779;28;20102;-86
2021/01/21 08:55:21;;;;;;;5.30;1.90;;;;;;;;;;4996202;28;20134;-88
2021/01/21 08:58:03;;;;;;;3.67;1.48;;;;;;;;;;4996052;28;20050;-87
2021/01/21 09:00:30;;;;;;;497.85;66.32;;;;;;;;;;5005651;28;20117;-91
2021/01/21 09:02:58;;;;;;;7.68;1.95;;;;;;;;;;5004542;28;20105;-86
2021/01/21 09:05:55;;;;;;;405.45;49.28;;;;;;;;;;4999520;28;20050;-93
2021/01/21 09:08:22;;;;;;;106.05;9.82;;;;;;;;;;4978975;28;20121;-90
2021/01/21 09:10:50;;;;;;;3.28;1.30;;;;;;;;;;5004869;28;20310;-87
2021/01/21 09:13:32;;;;;;;3.33;1.38;;;;;;;;;;5005603;28;20100;-91
2021/01/21 09:16:00;;;;;;;2.13;1.10;;;;;;;;;;5019238;28;20092;-90
2021/01/21 09:19:09;;;;;;;11.80;2.28;;;;;;;;;;5002970;28;20058;-89
2021/01/21 09:21:37;;;;;;;4.15;1.00;;;;;;;;;;4998938;28;20125;-94
2021/01/21 09:24:25;;;;;;;3.40;1.38;;;;;;;;;;5005228;28;20510;-89
2021/01/21 09:27:08;;;;;;;2.63;1.13;;;;;;;;;;5000237;28;20412;-89
2021/01/21 09:30:11;;;;;;;2.70;1.52;;;;;;;;;;5007795;28;20050;-86
2021/01/21 09:36:11;;;;;;;3.38;1.35;;;;;;;;;;4941525;29;20150;-92
2021/01/21 09:38:39;;;;;;;10.00;1.50;;;;;;;;;;4924198;29;20533;-85
2021/01/21 09:41:10;;;;;;;1.80;1.23;;;;;;;;;;4985299;28;20049;-84
2021/01/21 09:43:40;;;;;;;5.07;1.58;;;;;;;;;;5011437;28;20050;-89
2021/01/21 09:46:23;;;;;;;4.15;1.05;;;;;;;;;;4997483;28;20047;-83
2021/01/21 09:48:49;;;;;;;2.85;1.20;;;;;;;;;;4996348;28;20104;-84
2021/01/21 09:51:16;;;;;;;3.90;1.30;;;;;;;;;;5008045;28;20058;-85
2021/01/21 09:53:43;;;;;;;2.13;0.93;;;;;;;;;;5001092;28;20059;-86
2021/01/21 09:56:12;;;;;;;3.03;1.30;;;;;;;;;;4987899;28;20101;-84
2021/01/21 09:58:38;;;;;;;4.53;1.33;;;;;;;;;;4996219;28;20054;-86
2021/01/21 10:01:08;;;;;;;4.93;1.48;;;;;;;;;;5014567;28;20073;-84
2021/01/21 10:03:48;;;;;;;7.18;1.55;;;;;;;;;;4994210;28;20066;-85
2021/01/21 10:06:24;;;;;;;5.32;1.33;;;;;;;;;;5010037;28;20050;-87
2021/01/21 10:08:54;;;;;;;5.25;1.40;;;;;;;;;;5007232;28;20049;-87
2021/01/21 10:11:23;;;;;;;3.70;0.93;;;;;;;;;;4998786;28;20100;-84
2021/01/21 10:13:56;;;;;;;2.00;1.00;;;;;;;;;;5005129;28;20061;-83
2021/01/21 10:16:24;;;;;;;4.97;0.68;;;;;;;;;;5002271;28;20054;-83
2021/01/21 10:18:56;;;;;;;9.50;0.90;;;;;;;;;;5011993;28;20052;-85
2021/01/21 10:21:35;;;;;;;7.78;0.55;;;;;;;;;;5004520;28;20657;-84
2021/01/21 10:24:06;;;;;;;1.35;0.50;;;;;;;;;;5004004;28;20092;-85
2021/01/21 10:26:33;;;;;;;1.23;0.80;;;;;;;;;;5008087;28;20046;-85
2021/01/21 10:29:12;;;;;;;2.42;0.60;;;;;;;;;;5003580;28;20058;-86
2021/01/21 10:31:53;;;;;;;1.83;0.50;;;;;;;;;;5004990;28;20069;-85
2021/01/21 10:34:44;;;;;;;1.33;0.50;;;;;;;;;;4997757;28;20128;-84
2021/01/21 10:37:13;;;;;;;0.30;0.20;;;;;;;;;;5002195;28;20045;-84
2021/01/21 10:39:55;;;;;;;1.90;0.35;;;;;;;;;;5003942;28;20057;-83
2021/01/21 10:42:21;;;;;;;0.63;0.32;;;;;;;;;;5005704;28;20070;-83
2021/01/21 10:44:48;;;;;;;2.65;0.25;;;;;;;;;;5005917;28;20046;-83
2021/01/21 10:47:22;;;;;;;3.78;0.32;;;;;;;;;;4997100;28;20046;-86
2021/01/21 10:49:52;;;;;;;0.77;0.35;;;;;;;;;;5004064;28;20049;-82
2021/01/21 10:52:21;;;;;;;1.75;0.30;;;;;;;;;;5008450;28;20058;-84
2021/01/21 10:54:50;;;;;;;0.25;0.10;;;;;;;;;;5001497;28;20142;-84
2021/01/21 10:57:45;;;;;;;1.73;0.20;;;;;;;;;;5000577;28;20077;-84
2021/01/21 11:00:13;;;;;;;1.52;0.30;;;;;;;;;;4993631;28;20082;-83
2021/01/21 11:02:39;;;;;;;5.93;0.40;;;;;;;;;;4993554;28;20046;-82
2021/01/21 11:05:06;;;;;;;9.07;2.70;;;;;;;;;;4994021;28;20081;-83
2021/01/21 11:07:33;;;;;;;1.00;0.22;;;;;;;;;;4993862;28;20050;-82
2021/01/21 11:10:05;;;;;;;1.65;0.20;;;;;;;;;;5003474;28;20108;-86
2021/01/21 11:12:48;;;;;;;0.85;0.25;;;;;;;;;;5005305;28;20054;-87
2021/01/21 11:15:16;;;;;;;5.88;0.30;;;;;;;;;;4999516;28;20056;-85
2021/01/21 11:17:43;;;;;;;2.38;0.30;;;;;;;;;;5007161;28;20050;-91
2021/01/21 11:20:12;;;;;;;5.63;0.38;;;;;;;;;;5002658;28;20562;-85
2021/01/21 11:22:41;;;;;;;2.15;0.43;;;;;;;;;;5010097;28;20061;-89
2021/01/21 11:25:09;;;;;;;3.70;0.30;;;;;;;;;;5006747;28;20514;-88
2021/01/21 11:27:56;;;;;;;8.60;0.75;;;;;;;;;;4997038;28;20056;-82
2021/01/21 11:30:23;;;;;;;2.83;0.60;;;;;;;;;;5000549;28;20065;-86
2021/01/21 11:33:07;;;;;;;3.92;0.60;;;;;;;;;;4994066;28;20058;-83
2021/01/21 11:35:35;;;;;;;2.05;0.50;;;;;;;;;;5007669;28;20053;-86
2021/01/21 11:38:04;;;;;;;1.67;0.60;;;;;;;;;;4995510;28;20051;-88
2021/01/21 11:40:31;;;;;;;1.10;0.50;;;;;;;;;;5003093;28;20124;-88
2021/01/21 11:42:57;;;;;;;1.75;0.43;;;;;;;;;;5004676;28;20057;-89
2021/01/21 11:45:24;;;;;;;1.60;0.40;;;;;;;;;;5005249;28;20077;-88
2021/01/21 11:47:55;;;;;;;3.35;0.35;;;;;;;;;;5005068;28;20549;-89
2021/01/21 11:50:22;;;;;;;7.03;0.60;;;;;;;;;;5004044;28;20053;-89
2021/01/21 11:52:49;;;;;;;1.88;0.55;;;;;;;;;;5009166;28;20144;-87
2021/01/21 11:55:16;;;;;;;1.23;0.40;;;;;;;;;;5007526;28;20476;-89
2021/01/21 11:57:43;;;;;;;3.95;1.25;;;;;;;;;;5003136;28;20042;-89
2021/01/21 12:00:14;;;;;;;0.68;0.30;;;;;;;;;;4995892;28;20049;-86
2021/01/21 12:02:41;;;;;;;2.08;0.52;;;;;;;;;;5001368;28;20047;-87
2021/01/21 12:05:09;;;;;;;4.53;0.52;;;;;;;;;;5003765;28;20054;-86
2021/01/21 12:07:36;;;;;;;2.10;1.15;;;;;;;;;;5006226;28;20057;-86
2021/01/21 12:10:07;;;;;;;4.55;0.45;;;;;;;;;;5020821;28;20057;-83
2021/01/21 12:12:34;;;;;;;0.70;0.40;;;;;;;;;;5006042;28;20046;-88
2021/01/21 12:15:01;;;;;;;1.73;0.40;;;;;;;;;;5003718;28;20054;-91
2021/01/21 12:17:35;;;;;;;2.33;0.30;;;;;;;;;;5003852;28;20100;-86
2021/01/21 12:20:02;;;;;;;3.22;0.30;;;;;;;;;;5005935;28;20038;-92
2021/01/21 12:22:29;;;;;;;2.33;0.40;;;;;;;;;;5007505;28;20041;-87
2021/01/21 12:24:58;;;;;;;0.47;0.25;;;;;;;;;;5006062;28;20149;-89
2021/01/21 12:27:25;;;;;;;1.40;0.30;;;;;;;;;;5007051;28;20128;-85
2021/01/21 12:29:52;;;;;;;0.73;0.32;;;;;;;;;;5004829;28;20050;-85
2021/01/21 12:32:18;;;;;;;0.60;0.30;;;;;;;;;;4991311;28;20725;-86
2021/01/21 12:34:47;;;;;;;4.65;0.70;;;;;;;;;;5005182;28;20050;-86
2021/01/21 12:37:20;;;;;;;1.88;0.52;;;;;;;;;;4986942;28;20081;-88
2021/01/21 12:39:49;;;;;;;1.20;0.35;;;;;;;;;;4999587;28;20058;-85
2021/01/21 12:42:16;;;;;;;2.17;0.68;;;;;;;;;;4992689;28;20078;-86
2021/01/21 12:44:43;;;;;;;2.75;0.60;;;;;;;;;;5003703;28;20062;-84
2021/01/21 12:47:21;;;;;;;1.90;0.55;;;;;;;;;;4995482;28;20037;-88
2021/01/21 12:49:48;;;;;;;9.48;0.65;;;;;;;;;;5003449;28;20038;-82
2021/01/21 12:52:19;;;;;;;0.85;0.45;;;;;;;;;;4999449;28;20121;-82
2021/01/21 12:54:48;;;;;;;3.13;0.70;;;;;;;;;;4996548;28;20079;-86
2021/01/21 12:57:19;;;;;;;10.05;0.73;;;;;;;;;;4998112;28;20491;-87
2021/01/21 13:00:01;;;;;;;9.07;0.65;;;;;;;;;;5003910;28;20077;-86
2021/01/21 13:02:27;;;;;;;4.78;0.40;;;;;;;;;;4986442;28;20556;-85
2021/01/21 13:04:55;;;;;;;1.83;0.38;;;;;;;;;;4991675;28;20400;-77
2021/01/21 13:07:22;;;;;;;1.20;0.40;;;;;;;;;;4988250;28;20073;-77
2021/01/21 13:09:50;;;;;;;3.22;0.55;;;;;;;;;;4998786;28;20053;-80
2021/01/21 13:12:17;;;;;;;0.70;0.45;;;;;;;;;;5002374;28;20491;-78
2021/01/21 13:14:44;;;;;;;0.82;0.30;;;;;;;;;;5000730;28;20073;-77
2021/01/21 13:17:10;;;;;;;3.70;0.30;;;;;;;;;;4997851;28;20124;-77
2021/01/21 13:19:37;;;;;;;1.52;0.57;;;;;;;;;;4991359;28;20045;-77
2021/01/21 13:22:05;;;;;;;1.70;0.60;;;;;;;;;;4993776;28;20039;-77
2021/01/21 13:24:32;;;;;;;2.25;0.70;;;;;;;;;;5004176;28;20064;-78
2021/01/21 13:27:02;;;;;;;1.45;0.50;;;;;;;;;;5003332;28;20536;-78
2021/01/21 13:29:31;;;;;;;4.15;1.08;;;;;;;;;;5000063;28;20050;-78
2021/01/21 13:31:58;;;;;;;1.65;0.32;;;;;;;;;;4992373;28;20168;-79
2021/01/21 13:34:28;;;;;;;3.13;0.50;;;;;;;;;;4994972;28;20045;-78
2021/01/21 13:36:55;;;;;;;2.10;0.50;;;;;;;;;;5001419;28;20108;-79
2021/01/21 13:39:22;;;;;;;1.23;0.50;;;;;;;;;;4999569;28;20081;-78
2021/01/21 13:41:49;;;;;;;3.08;0.52;;;;;;;;;;4996786;28;20132;-78
2021/01/21 13:44:15;;;;;;;92.70;13.32;;;;;;;;;;4992684;28;20137;-78
2021/01/21 13:46:42;;;;;;;3.50;0.50;;;;;;;;;;5000029;28;20062;-80
2021/01/21 13:49:09;;;;;;;0.52;0.30;;;;;;;;;;5002132;28;20495;-79
2021/01/21 13:51:36;;;;;;;13.90;3.33;;;;;;;;;;5004145;28;20053;-78
2021/01/21 13:54:03;;;;;;;4.88;0.60;;;;;;;;;;5001792;28;20056;-78
2021/01/21 13:56:31;;;;;;;1.52;0.50;;;;;;;;;;5001347;28;20049;-81
2021/01/21 13:58:57;;;;;;;1.55;0.52;;;;;;;;;;5001562;28;20074;-81
2021/01/21 14:01:37;;;;;;;2.45;0.35;;;;;;;;;;4990648;28;20213;-81
2021/01/21 14:04:07;;;;;;;2.20;0.63;;;;;;;;;;4995379;28;20491;-80
2021/01/21 14:06:34;;;;;;;4.43;0.38;;;;;;;;;;5000797;28;20081;-80
2021/01/21 14:09:03;;;;;;;2.80;0.52;;;;;;;;;;5003604;28;20054;-83
2021/01/21 14:11:30;;;;;;;0.40;0.30;;;;;;;;;;5000706;28;20088;-81
2021/01/21 14:14:01;;;;;;;4.22;0.77;;;;;;;;;;5004553;28;20078;-83
2021/01/21 14:16:28;;;;;;;2.35;0.70;;;;;;;;;;5002335;28;20050;-82
2021/01/21 14:19:06;;;;;;;8.68;0.90;;;;;;;;;;5003399;28;20070;-84
2021/01/21 14:21:38;;;;;;;4.70;0.57;;;;;;;;;;5006875;28;20052;-83
2021/01/21 14:24:10;;;;;;;5.00;0.63;;;;;;;;;;4995042;28;20484;-82
2021/01/21 14:26:39;;;;;;;1.10;0.50;;;;;;;;;;5001613;28;20459;-81
2021/01/21 14:29:05;;;;;;;2.58;0.68;;;;;;;;;;5002267;28;20129;-81
2021/01/21 14:31:32;;;;;;;1.38;0.50;;;;;;;;;;4995990;28;20148;-81
2021/01/21 14:34:00;;;;;;;3.47;0.50;;;;;;;;;;4993976;28;20535;-81
2021/01/21 14:36:27;;;;;;;2.03;0.50;;;;;;;;;;4994383;28;20547;-81
2021/01/21 14:38:54;;;;;;;2.88;1.23;;;;;;;;;;5001968;28;20042;-81
2021/01/21 14:41:21;;;;;;;2.85;1.17;;;;;;;;;;5001355;28;20143;-81
2021/01/21 14:43:48;;;;;;;0.50;0.40;;;;;;;;;;4995969;28;20094;-81
2021/01/21 14:46:16;;;;;;;2.28;0.60;;;;;;;;;;4994072;28;20543;-81
2021/01/21 14:48:47;;;;;;;0.60;0.30;;;;;;;;;;5000970;28;20413;-80
2021/01/21 14:51:13;;;;;;;1.27;0.68;;;;;;;;;;5004751;28;20046;-80
2021/01/21 14:53:40;;;;;;;0.93;0.40;;;;;;;;;;5004295;28;20054;-80
2021/01/21 14:56:07;;;;;;;1.15;0.52;;;;;;;;;;4995648;28;20129;-80
2021/01/21 14:58:34;;;;;;;11.38;0.70;;;;;;;;;;5003649;28;20074;-80
2021/01/21 15:01:03;;;;;;;1.10;0.50;;;;;;;;;;4990352;28;20093;-81
2021/01/21 15:03:30;;;;;;;3.67;0.50;;;;;;;;;;4993464;28;20069;-81
2021/01/21 15:05:57;;;;;;;2.22;0.50;;;;;;;;;;5002953;28;20472;-81